Time;durP1;ratioP1;P1;durP2;ratioP2;P2;SDS_P1;SDS_P2;PMS_P1;PMS_P2;Temp;Humidity;BMP_temperature;BMP_pressure;BME280_temperature;BME280_humidity;BME280_pressure;Samples;Min_cycle;Max_cycle;Signal;HPM_P1;HPM_P2
2021/07/12 00:01:42;;;;;;;11.38;6.78;;;18.70;99.90;;;;;;5056422;28;20362;-64
2021/07/12 00:04:08;;;;;;;13.77;6.63;;;18.80;99.90;;;;;;5055744;28;20090;-64
2021/07/12 00:06:33;;;;;;;8.07;6.97;;;18.70;99.90;;;;;;5073832;28;20386;-65
2021/07/12 00:09:00;;;;;;;7.40;6.22;;;18.70;99.90;;;;;;5054545;28;20025;-65
2021/07/12 00:11:27;;;;;;;6.80;6.10;;;18.70;99.90;;;;;;5056304;28;20035;-64
2021/07/12 00:13:52;;;;;;;8.63;6.25;;;18.70;99.90;;;;;;5073233;28;20100;-65
2021/07/12 00:16:18;;;;;;;10.77;6.03;;;18.60;99.90;;;;;;5056387;28;20111;-64
2021/07/12 00:18:44;;;;;;;6.68;5.93;;;18.70;99.90;;;;;;5056309;28;20031;-64
2021/07/12 00:21:10;;;;;;;8.88;6.65;;;18.60;99.90;;;;;;5056490;28;20028;-65
2021/07/12 00:23:36;;;;;;;9.55;5.90;;;18.60;99.90;;;;;;5055063;28;20120;-73
2021/07/12 00:26:03;;;;;;;7.30;6.57;;;18.70;99.90;;;;;;5073001;28;20451;-65
2021/07/12 00:28:30;;;;;;;10.38;6.45;;;18.60;99.90;;;;;;5073775;28;20035;-66
2021/07/12 00:30:55;;;;;;;6.43;5.82;;;18.60;99.90;;;;;;5072718;28;20027;-64
2021/07/12 00:33:21;;;;;;;7.13;6.07;;;18.60;99.90;;;;;;5073293;28;20024;-66
2021/07/12 00:35:47;;;;;;;7.95;6.15;;;18.50;99.90;;;;;;5054450;28;20043;-66
2021/07/12 00:38:12;;;;;;;10.63;6.68;;;18.50;99.90;;;;;;5073365;28;20470;-64
2021/07/12 00:40:38;;;;;;;7.80;5.88;;;18.50;99.90;;;;;;5072483;28;20024;-64
2021/07/12 00:43:05;;;;;;;6.28;5.65;;;18.50;99.90;;;;;;5054622;28;20392;-65
2021/07/12 00:45:33;;;;;;;6.95;5.22;;;18.60;99.90;;;;;;5054515;28;20040;-64
2021/07/12 00:47:59;;;;;;;7.88;5.95;;;18.50;99.90;;;;;;5054553;28;20032;-65
2021/07/12 00:50:28;;;;;;;7.53;6.00;;;18.50;99.90;;;;;;5073097;28;20028;-64
2021/07/12 00:52:56;;;;;;;6.30;5.70;;;18.50;99.90;;;;;;5054418;28;20036;-64
2021/07/12 00:55:24;;;;;;;8.40;6.88;;;18.40;99.90;;;;;;5072216;28;20047;-64
2021/07/12 00:57:50;;;;;;;10.23;6.57;;;18.50;99.90;;;;;;5054026;28;20131;-64
2021/07/12 01:00:17;;;;;;;9.30;6.82;;;18.50;99.90;;;;;;5054505;28;20024;-64
2021/07/12 01:02:43;;;;;;;8.98;7.13;;;18.50;99.90;;;;;;5072873;28;20172;-64
2021/07/12 01:05:13;;;;;;;8.02;6.90;;;18.50;99.90;;;;;;5054248;28;20490;-65
2021/07/12 01:07:40;;;;;;;11.00;8.07;;;18.50;99.90;;;;;;5073175;28;20021;-65
2021/07/12 01:10:06;;;;;;;10.85;8.35;;;18.40;99.90;;;;;;5053767;28;20021;-66
2021/07/12 01:12:59;;;;;;;8.77;7.88;;;18.40;99.90;;;;;;5072879;28;20036;-65
2021/07/12 01:15:30;;;;;;;10.82;8.75;;;18.40;99.90;;;;;;5072384;28;20127;-65
2021/07/12 01:18:02;;;;;;;11.07;8.77;;;18.40;99.90;;;;;;5053961;28;20071;-64
2021/07/12 01:21:04;;;;;;;10.73;8.20;;;18.30;99.90;;;;;;5054448;28;20124;-64
2021/07/12 01:23:42;;;;;;;13.27;8.75;;;18.30;99.90;;;;;;5054764;28;20035;-65
2021/07/12 01:26:13;;;;;;;10.57;7.72;;;18.20;99.90;;;;;;5085660;28;20214;-65
2021/07/12 01:28:49;;;;;;;;;;;18.20;99.90;;;;;;5092808;28;20104;-65
2021/07/12 01:31:56;;;;;;;10.65;8.20;;;18.20;99.90;;;;;;5092740;28;20299;-64
2021/07/12 01:34:34;;;;;;;10.05;8.48;;;18.10;99.90;;;;;;5092277;28;20105;-67
2021/07/12 01:37:13;;;;;;;12.23;8.50;;;18.10;99.90;;;;;;5090370;28;20097;-64
2021/07/12 01:39:47;;;;;;;12.45;8.05;;;18.10;99.90;;;;;;5090475;28;20028;-64
2021/07/12 01:42:20;;;;;;;12.70;7.85;;;18.00;99.90;;;;;;5090515;28;20469;-64
2021/07/12 01:45:04;;;;;;;12.23;8.13;;;17.90;99.90;;;;;;5090895;28;20024;-65
2021/07/12 01:48:03;;;;;;;10.13;7.57;;;17.90;99.90;;;;;;5090983;28;20024;-65
2021/07/12 01:50:44;;;;;;;11.65;7.72;;;17.90;99.90;;;;;;5047997;28;20376;-64
2021/07/12 01:53:09;;;;;;;11.57;7.30;;;17.90;99.90;;;;;;5091106;28;20043;-65
2021/07/12 01:55:50;;;;;;;10.73;7.68;;;17.80;99.90;;;;;;5092289;28;20043;-65
2021/07/12 01:58:47;;;;;;;11.23;7.45;;;17.80;99.90;;;;;;5092108;28;20469;-64
2021/07/12 02:01:14;;;;;;;9.30;6.68;;;17.80;99.90;;;;;;5091457;28;20028;-64
2021/07/12 02:03:41;;;;;;;9.57;7.78;;;17.80;99.90;;;;;;5090635;28;20050;-64
2021/07/12 02:06:09;;;;;;;9.77;6.95;;;17.80;99.90;;;;;;5090019;28;20034;-64
2021/07/12 02:08:40;;;;;;;12.80;6.85;;;17.80;99.90;;;;;;5089606;28;20020;-65
2021/07/12 02:11:06;;;;;;;12.60;6.57;;;17.80;99.90;;;;;;5091259;28;20050;-65
2021/07/12 02:13:35;;;;;;;9.32;6.38;;;17.80;99.90;;;;;;5091861;28;20047;-64
2021/07/12 02:16:03;;;;;;;9.80;7.53;;;17.80;99.90;;;;;;5090669;28;20032;-65
2021/07/12 02:18:32;;;;;;;7.25;6.55;;;17.70;99.90;;;;;;5090258;28;20180;-64
2021/07/12 02:20:59;;;;;;;11.93;6.50;;;17.70;99.90;;;;;;5089437;28;20032;-66
2021/07/12 02:23:26;;;;;;;9.50;6.57;;;17.70;99.90;;;;;;5090644;28;20040;-64
2021/07/12 02:25:53;;;;;;;11.05;7.35;;;17.70;99.90;;;;;;5089095;28;20062;-67
2021/07/12 02:28:19;;;;;;;10.18;6.90;;;17.60;99.90;;;;;;5089997;28;20466;-65
2021/07/12 02:30:45;;;;;;;9.90;7.25;;;17.70;99.90;;;;;;5089900;28;20217;-64
2021/07/12 02:33:12;;;;;;;10.40;6.57;;;17.70;99.90;;;;;;5090834;28;20173;-64
2021/07/12 02:35:39;;;;;;;10.73;6.35;;;17.70;99.90;;;;;;5091335;28;20052;-65
2021/07/12 02:38:07;;;;;;;7.03;5.75;;;17.80;99.90;;;;;;5088821;28;20245;-64
2021/07/12 02:40:33;;;;;;;8.43;6.43;;;17.70;99.90;;;;;;5090040;28;20039;-64
2021/07/12 02:43:00;;;;;;;6.80;6.15;;;17.70;99.90;;;;;;5089353;28;20025;-63
2021/07/12 02:45:29;;;;;;;8.20;6.00;;;17.70;99.90;;;;;;5090290;28;20027;-64
2021/07/12 02:47:54;;;;;;;10.15;6.40;;;17.60;99.90;;;;;;5089744;28;20020;-64
2021/07/12 02:50:21;;;;;;;12.90;6.13;;;17.60;99.90;;;;;;5091124;28;20089;-66
2021/07/12 02:53:15;;;;;;;9.15;6.43;;;17.60;99.90;;;;;;5089048;28;20134;-65
2021/07/12 02:55:41;;;;;;;9.63;5.72;;;17.60;99.90;;;;;;5091178;28;20036;-66
2021/07/12 02:58:07;;;;;;;6.68;5.90;;;17.60;99.90;;;;;;5090985;28;20097;-64
2021/07/12 03:00:32;;;;;;;6.78;6.07;;;17.50;99.90;;;;;;5091120;28;20044;-65
2021/07/12 03:02:58;;;;;;;10.93;5.75;;;17.40;99.90;;;;;;5089023;28;20028;-64
2021/07/12 03:05:24;;;;;;;8.20;5.68;;;17.50;99.90;;;;;;5089849;28;20484;-64
2021/07/12 03:07:49;;;;;;;6.60;5.97;;;17.50;99.90;;;;;;5089093;28;20025;-65
2021/07/12 03:10:20;;;;;;;7.75;5.97;;;17.50;99.90;;;;;;5089163;28;20024;-64
2021/07/12 03:12:51;;;;;;;9.40;5.40;;;17.50;99.90;;;;;;5089765;28;20036;-65
2021/07/12 03:15:30;;;;;;;7.82;5.47;;;17.60;99.90;;;;;;5081569;28;20397;-67
2021/07/12 03:17:58;;;;;;;8.52;5.55;;;17.60;99.90;;;;;;5069486;28;20025;-64
2021/07/12 03:20:27;;;;;;;7.88;5.45;;;17.60;99.90;;;;;;5069863;28;20041;-65
2021/07/12 03:22:57;;;;;;;7.90;5.80;;;17.60;99.90;;;;;;5067473;28;20051;-77
2021/07/12 03:25:28;;;;;;;7.80;5.85;;;17.60;99.90;;;;;;5058910;28;20076;-66
2021/07/12 03:27:57;;;;;;;7.30;5.78;;;17.60;99.90;;;;;;5050355;28;20426;-65
2021/07/12 03:30:25;;;;;;;7.78;5.70;;;17.60;99.90;;;;;;5050572;28;20501;-66
2021/07/12 03:32:53;;;;;;;7.55;5.10;;;17.50;99.90;;;;;;5031732;28;20033;-64
2021/07/12 03:35:20;;;;;;;6.93;5.40;;;17.50;99.90;;;;;;5031728;28;20040;-65
2021/07/12 03:37:46;;;;;;;9.30;5.55;;;17.50;99.90;;;;;;5049116;28;20021;-66
2021/07/12 03:40:13;;;;;;;9.57;5.10;;;17.50;99.90;;;;;;5031251;28;20056;-65
2021/07/12 03:42:39;;;;;;;6.80;5.63;;;17.40;99.90;;;;;;5032222;28;20032;-66
2021/07/12 03:45:06;;;;;;;6.88;5.93;;;17.40;99.90;;;;;;5034804;28;20021;-65
2021/07/12 03:47:35;;;;;;;5.95;5.25;;;17.40;99.90;;;;;;5051387;28;20545;-64
2021/07/12 03:50:11;;;;;;;7.20;5.50;;;17.50;99.90;;;;;;5051080;28;20020;-66
2021/07/12 03:52:44;;;;;;;7.32;5.10;;;17.60;99.90;;;;;;5050392;28;20032;-65
2021/07/12 03:55:11;;;;;;;6.28;5.63;;;17.60;99.90;;;;;;5050709;28;20040;-64
2021/07/12 03:57:38;;;;;;;7.57;5.35;;;17.60;99.90;;;;;;5071924;28;20025;-70
2021/07/12 04:00:05;;;;;;;6.72;5.35;;;17.50;99.90;;;;;;5054604;28;20118;-66
2021/07/12 04:02:31;;;;;;;6.55;5.18;;;17.60;99.90;;;;;;5054877;28;20024;-67
2021/07/12 04:04:57;;;;;;;9.10;5.35;;;17.60;99.90;;;;;;5054517;28;20146;-67
2021/07/12 04:07:22;;;;;;;5.03;4.53;;;17.70;99.90;;;;;;5072180;28;20029;-70
2021/07/12 04:09:48;;;;;;;7.15;5.50;;;17.80;99.90;;;;;;5072747;28;20111;-65
2021/07/12 04:12:22;;;;;;;9.70;5.47;;;17.80;99.90;;;;;;5072568;28;20029;-65
2021/07/12 04:14:48;;;;;;;6.43;4.78;;;17.80;99.90;;;;;;5054619;28;20044;-67
2021/07/12 04:17:13;;;;;;;5.97;5.03;;;17.80;99.90;;;;;;5053953;28;20036;-66
2021/07/12 04:19:39;;;;;;;6.68;5.32;;;17.80;99.90;;;;;;5072519;28;20138;-65
2021/07/12 04:22:04;;;;;;;9.98;5.13;;;17.70;99.90;;;;;;5071242;28;20035;-64
2021/07/12 04:24:30;;;;;;;5.32;4.57;;;17.80;99.90;;;;;;5059098;28;20381;-65
2021/07/12 04:26:56;;;;;;;6.63;5.28;;;17.70;99.90;;;;;;5092515;28;20103;-68
2021/07/12 04:29:21;;;;;;;6.43;4.65;;;17.70;99.90;;;;;;5091349;28;20069;-65
2021/07/12 04:31:48;;;;;;;7.45;4.45;;;17.90;99.90;;;;;;5092263;28;20095;-65
2021/07/12 04:34:14;;;;;;;6.03;5.40;;;17.90;99.90;;;;;;5091985;28;20032;-65
2021/07/12 04:36:39;;;;;;;6.25;5.13;;;17.90;99.90;;;;;;5090997;28;20518;-67
2021/07/12 04:39:05;;;;;;;6.80;5.65;;;17.90;99.90;;;;;;5089856;28;20420;-65
2021/07/12 04:41:31;;;;;;;10.30;6.20;;;17.90;99.90;;;;;;5092422;28;20032;-64
2021/07/12 04:43:56;;;;;;;7.97;5.78;;;17.80;99.90;;;;;;5091599;28;20457;-65
2021/07/12 04:46:22;;;;;;;6.20;4.80;;;17.80;99.90;;;;;;5090460;28;20032;-66
2021/07/12 04:48:48;;;;;;;6.82;5.97;;;17.80;99.90;;;;;;5091727;28;20028;-65
2021/07/12 04:51:15;;;;;;;7.65;5.68;;;17.80;99.90;;;;;;5091026;28;20043;-66
2021/07/12 04:53:41;;;;;;;5.50;4.70;;;17.70;99.90;;;;;;5089542;28;20032;-64
2021/07/12 04:56:08;;;;;;;5.63;5.00;;;17.80;99.90;;;;;;5091138;28;20459;-65
2021/07/12 04:58:43;;;;;;;8.13;6.03;;;17.80;99.90;;;;;;5090323;28;20028;-68
2021/07/12 05:01:09;;;;;;;6.95;5.25;;;17.70;99.90;;;;;;5090140;28;20381;-65
2021/07/12 05:03:34;;;;;;;7.47;5.47;;;17.80;99.90;;;;;;5092006;28;20024;-65
2021/07/12 05:06:00;;;;;;;5.38;4.38;;;17.80;99.90;;;;;;5090944;28;20038;-65
2021/07/12 05:08:25;;;;;;;8.57;4.78;;;18.00;99.90;;;;;;5090323;28;20368;-66
2021/07/12 05:10:51;;;;;;;11.75;5.53;;;18.10;99.90;;;;;;5091615;28;20032;-66
2021/07/12 05:13:18;;;;;;;7.00;5.00;;;18.20;99.90;;;;;;5089579;28;20123;-64
2021/07/12 05:15:43;;;;;;;7.13;4.85;;;18.30;99.90;;;;;;5089811;28;20040;-64
2021/07/12 05:18:10;;;;;;;6.95;5.07;;;18.50;99.90;;;;;;5089483;28;20028;-65
2021/07/12 05:20:36;;;;;;;6.55;4.30;;;18.50;99.90;;;;;;5091511;28;20040;-67
2021/07/12 05:23:02;;;;;;;8.20;4.97;;;18.50;99.90;;;;;;5089982;28;20031;-68
2021/07/12 05:25:27;;;;;;;6.28;4.78;;;18.50;99.90;;;;;;5079251;28;20502;-64
2021/07/12 05:27:54;;;;;;;7.90;4.25;;;18.50;99.90;;;;;;5070558;28;20127;-72
2021/07/12 05:30:19;;;;;;;10.25;3.83;;;18.60;99.90;;;;;;5052797;28;20098;-65
2021/07/12 05:32:45;;;;;;;4.90;3.92;;;18.60;99.90;;;;;;5053395;28;20052;-65
2021/07/12 05:35:12;;;;;;;7.28;3.97;;;18.60;99.90;;;;;;5053023;28;20037;-65
2021/07/12 05:37:37;;;;;;;4.50;4.10;;;18.50;99.90;;;;;;5070672;28;20027;-65
2021/07/12 05:40:07;;;;;;;5.18;3.50;;;18.40;99.90;;;;;;5070384;28;20335;-65
2021/07/12 05:42:33;;;;;;;5.75;3.80;;;18.50;99.90;;;;;;5052745;28;20032;-66
2021/07/12 05:44:59;;;;;;;19.50;3.97;;;18.60;99.90;;;;;;5069596;28;20041;-66
2021/07/12 05:47:25;;;;;;;6.07;3.47;;;18.70;99.90;;;;;;5052166;28;20377;-66
2021/07/12 05:49:51;;;;;;;5.78;3.63;;;18.70;99.90;;;;;;5070168;28;20454;-67
2021/07/12 05:52:16;;;;;;;5.38;3.58;;;18.90;99.90;;;;;;5068338;28;20032;-67
2021/07/12 05:54:42;;;;;;;6.43;3.72;;;18.80;99.90;;;;;;5070122;28;20033;-65
2021/07/12 05:57:08;;;;;;;5.75;3.47;;;18.80;99.90;;;;;;5069746;28;20029;-68
2021/07/12 05:59:33;;;;;;;7.95;4.18;;;19.00;99.90;;;;;;5070081;28;20028;-65
2021/07/12 06:01:59;;;;;;;4.05;3.63;;;19.00;99.90;;;;;;5069392;28;20078;-66
2021/07/12 06:04:25;;;;;;;5.90;4.10;;;19.20;99.90;;;;;;5070448;28;20085;-66
2021/07/12 06:06:51;;;;;;;4.93;3.42;;;19.30;99.90;;;;;;5051046;28;20108;-64
2021/07/12 06:09:16;;;;;;;4.43;3.75;;;19.40;99.90;;;;;;5051473;28;20346;-66
2021/07/12 06:11:42;;;;;;;5.32;3.20;;;19.50;99.90;;;;;;5051542;28;20191;-65
2021/07/12 06:14:08;;;;;;;3.85;3.42;;;19.70;99.90;;;;;;5069976;28;20025;-68
2021/07/12 06:16:33;;;;;;;5.03;3.90;;;19.60;99.90;;;;;;5071084;28;20419;-66
2021/07/12 06:18:59;;;;;;;5.50;3.50;;;19.30;99.90;;;;;;5069369;28;20028;-67
2021/07/12 06:21:25;;;;;;;4.07;3.13;;;19.30;99.90;;;;;;5067947;28;20024;-66
2021/07/12 06:23:51;;;;;;;11.90;3.90;;;19.40;99.90;;;;;;5051832;28;20118;-66
2021/07/12 06:26:17;;;;;;;3.53;3.22;;;19.40;99.90;;;;;;5085735;28;20130;-65
2021/07/12 06:28:42;;;;;;;10.38;3.92;;;19.70;99.90;;;;;;5090085;28;20086;-65
2021/07/12 06:31:08;;;;;;;6.65;4.32;;;19.80;99.90;;;;;;5089009;28;20098;-65
2021/07/12 06:33:34;;;;;;;6.18;4.10;;;19.60;99.90;;;;;;5088396;28;20032;-66
2021/07/12 06:35:59;;;;;;;4.18;3.80;;;19.80;99.90;;;;;;5088945;28;20071;-66
2021/07/12 06:38:25;;;;;;;6.55;3.00;;;19.90;99.90;;;;;;5087609;28;20091;-64
2021/07/12 06:40:51;;;;;;;6.90;3.80;;;20.00;99.90;;;;;;5088083;28;20024;-67
2021/07/12 06:43:16;;;;;;;3.45;3.15;;;20.20;99.90;;;;;;5087580;28;20334;-67
2021/07/12 06:45:43;;;;;;;3.65;3.35;;;20.20;99.90;;;;;;5087841;28;20028;-66
2021/07/12 06:48:09;;;;;;;4.68;3.25;;;20.30;99.90;;;;;;5088746;28;20037;-66
2021/07/12 06:50:35;;;;;;;8.43;3.08;;;20.40;99.90;;;;;;5089102;28;20040;-65
2021/07/12 06:53:01;;;;;;;4.07;3.50;;;20.30;99.90;;;;;;5086531;28;20080;-66
2021/07/12 06:55:28;;;;;;;4.60;3.30;;;20.40;99.90;;;;;;5088109;28;20424;-66
2021/07/12 06:57:53;;;;;;;7.43;3.17;;;20.20;99.90;;;;;;5089188;28;20111;-67
2021/07/12 07:00:19;;;;;;;6.20;3.50;;;20.30;99.90;;;;;;5088958;28;20120;-67
2021/07/12 07:02:45;;;;;;;3.50;3.20;;;20.40;99.90;;;;;;5089588;28;20028;-67
2021/07/12 07:05:11;;;;;;;3.83;3.05;;;20.50;99.90;;;;;;5089422;28;20043;-65
2021/07/12 07:07:37;;;;;;;5.93;3.28;;;20.70;99.90;;;;;;5089270;28;20368;-65
2021/07/12 07:10:05;;;;;;;7.63;3.60;;;20.70;99.90;;;;;;5087705;28;20036;-68
2021/07/12 07:12:30;;;;;;;5.18;3.53;;;20.80;99.90;;;;;;5088212;28;20036;-65
2021/07/12 07:14:56;;;;;;;5.05;3.60;;;20.80;99.90;;;;;;5087314;28;20036;-65
2021/07/12 07:17:22;;;;;;;7.72;4.25;;;20.80;99.90;;;;;;5089271;28;20123;-66
2021/07/12 07:19:47;;;;;;;4.03;2.83;;;20.80;99.90;;;;;;5089493;28;20030;-66
2021/07/12 07:22:13;;;;;;;4.90;3.13;;;20.90;99.90;;;;;;5088181;28;20101;-65
2021/07/12 07:24:39;;;;;;;7.85;5.82;;;20.90;99.90;;;;;;5083833;28;20057;-66
2021/07/12 07:27:05;;;;;;;4.82;3.75;;;21.00;99.90;;;;;;5069048;28;20024;-65
2021/07/12 07:29:30;;;;;;;9.60;2.78;;;21.00;99.90;;;;;;5062735;28;20039;-68
2021/07/12 07:31:56;;;;;;;7.95;3.40;;;21.20;99.90;;;;;;5033998;28;20079;-70
2021/07/12 07:34:22;;;;;;;7.30;3.42;;;21.50;99.90;;;;;;5054048;28;20437;-70
2021/07/12 07:36:47;;;;;;;5.18;2.95;;;21.60;99.90;;;;;;5053769;28;20478;-69
2021/07/12 07:39:13;;;;;;;3.63;2.70;;;21.70;99.90;;;;;;5053341;28;20059;-68
2021/07/12 07:41:40;;;;;;;5.20;2.35;;;22.00;99.90;;;;;;5035337;28;20211;-56
2021/07/12 07:44:06;;;;;;;37.03;3.90;;;22.20;99.90;;;;;;5052473;28;20029;-57
2021/07/12 07:46:33;;;;;;;4.82;2.20;;;22.40;99.90;;;;;;5054337;28;20414;-57
2021/07/12 07:48:59;;;;;;;5.47;2.60;;;22.40;99.90;;;;;;5035399;28;20082;-58
2021/07/12 07:51:25;;;;;;;5.13;2.92;;;22.60;99.90;;;;;;5053744;28;20471;-60
2021/07/12 07:53:51;;;;;;;8.77;3.00;;;22.60;99.90;;;;;;5054405;28;20075;-58
2021/07/12 07:56:17;;;;;;;8.07;3.28;;;22.80;99.90;;;;;;5054862;28;20076;-63
2021/07/12 07:58:43;;;;;;;7.80;3.00;;;23.00;99.90;;;;;;5054411;28;20098;-58
2021/07/12 08:01:08;;;;;;;4.32;2.50;;;22.80;99.90;;;;;;5072592;28;20517;-68
2021/07/12 08:03:34;;;;;;;7.68;2.53;;;22.90;99.90;;;;;;5074030;28;20516;-68
2021/07/12 08:06:00;;;;;;;8.00;2.80;;;23.10;99.90;;;;;;5055716;28;20202;-68
2021/07/12 08:08:25;;;;;;;7.28;2.83;;;23.20;99.90;;;;;;5056746;28;20028;-72
2021/07/12 08:10:52;;;;;;;5.88;2.85;;;23.30;99.90;;;;;;5057000;28;20073;-72
2021/07/12 08:13:18;;;;;;;5.40;3.22;;;23.40;99.90;;;;;;5073814;28;20112;-72
2021/07/12 08:15:43;;;;;;;5.55;2.97;;;23.50;99.90;;;;;;5054937;28;20136;-53
2021/07/12 08:18:10;;;;;;;7.00;2.97;;;23.60;99.90;;;;;;5073339;28;20031;-55
2021/07/12 08:20:36;;;;;;;5.43;2.55;;;23.80;99.90;;;;;;5054588;28;20037;-56
2021/07/12 08:23:02;;;;;;;3.53;2.63;;;23.60;99.90;;;;;;5072624;28;20032;-54
2021/07/12 08:25:29;;;;;;;2.90;2.70;;;23.70;99.90;;;;;;5075663;28;20044;-75
2021/07/12 08:27:54;;;;;;;4.47;2.60;;;23.50;99.90;;;;;;5091829;28;20465;-55
2021/07/12 08:30:21;;;;;;;4.15;2.40;;;23.50;99.90;;;;;;5087630;28;20100;-55
2021/07/12 08:32:47;;;;;;;4.55;2.92;;;23.70;99.90;;;;;;5076096;28;20028;-55
2021/07/12 08:35:15;;;;;;;3.95;2.38;;;23.70;99.90;;;;;;5080992;28;20059;-54
2021/07/12 08:37:41;;;;;;;9.45;3.30;;;23.80;99.90;;;;;;5077317;28;20028;-54
2021/07/12 08:40:09;;;;;;;4.10;2.42;;;24.10;99.90;;;;;;5081277;28;20031;-56
2021/07/12 08:42:35;;;;;;;7.18;2.20;;;24.30;99.90;;;;;;5076822;28;20035;-54
2021/07/12 08:45:05;;;;;;;2.17;1.60;;;24.60;99.90;;;;;;5082992;28;20032;-56
2021/07/12 08:47:31;;;;;;;5.47;2.45;;;24.60;99.90;;;;;;5084802;28;20025;-55
2021/07/12 08:49:57;;;;;;;2.47;1.60;;;24.80;99.90;;;;;;5087107;28;20069;-68
2021/07/12 08:52:22;;;;;;;5.03;2.15;;;24.70;99.90;;;;;;5071911;28;20029;-58
2021/07/12 08:54:48;;;;;;;3.58;1.70;;;25.10;99.90;;;;;;5072045;28;20044;-54
2021/07/12 08:57:14;;;;;;;3.85;1.60;;;25.50;99.90;;;;;;5072938;28;20028;-55
2021/07/12 08:59:41;;;;;;;4.35;1.70;;;25.60;99.90;;;;;;5086612;28;20032;-57
2021/07/12 09:02:12;;;;;;;3.65;1.75;;;25.70;99.90;;;;;;5064030;28;20157;-55
2021/07/12 09:04:48;;;;;;;;;;;26.00;99.90;;;;;;5078869;28;20028;-55
2021/07/12 09:07:33;;;;;;;3.25;2.30;;;26.00;99.50;;;;;;5078222;28;19991;-54
2021/07/12 09:10:16;;;;;;;2.45;1.88;;;26.20;98.70;;;;;;5072540;28;20048;-72
2021/07/12 09:12:50;;;;;;;6.22;1.90;;;25.90;99.30;;;;;;5087409;28;20036;-52
2021/07/12 09:15:17;;;;;;;5.88;2.42;;;25.80;99.30;;;;;;5087888;28;20051;-52
2021/07/12 09:17:52;;;;;;;3.10;1.48;;;25.80;98.90;;;;;;5090051;28;20553;-55
2021/07/12 09:20:29;;;;;;;3.53;1.95;;;25.90;99.50;;;;;;5080852;28;20028;-54
2021/07/12 09:22:55;;;;;;;1.80;1.55;;;25.30;99.30;;;;;;5080130;28;20036;-55
2021/07/12 09:25:22;;;;;;;4.53;2.30;;;24.90;99.90;;;;;;5075437;28;20047;-54
2021/07/12 09:27:55;;;;;;;2.88;1.73;;;25.00;99.90;;;;;;5071792;28;20497;-58
2021/07/12 09:30:21;;;;;;;6.95;1.90;;;25.60;99.70;;;;;;5077660;28;20032;-54
2021/07/12 09:32:51;;;;;;;4.80;1.77;;;25.70;99.90;;;;;;5088022;28;20031;-54
2021/07/12 09:35:20;;;;;;;6.37;1.70;;;25.00;99.40;;;;;;5089626;28;20042;-56
2021/07/12 09:37:55;;;;;;;4.38;1.92;;;25.20;99.80;;;;;;5067960;28;20032;-54
2021/07/12 09:40:20;;;;;;;2.78;1.50;;;25.40;99.90;;;;;;5066944;28;20067;-55
2021/07/12 09:42:49;;;;;;;5.13;1.95;;;25.30;99.10;;;;;;5067548;28;20052;-61
2021/07/12 09:45:21;;;;;;;2.22;1.60;;;25.10;99.30;;;;;;5059511;28;20036;-60
2021/07/12 09:47:49;;;;;;;1.42;1.33;;;25.00;99.50;;;;;;5030684;28;20040;-54
2021/07/12 09:50:16;;;;;;;3.80;1.50;;;25.20;99.40;;;;;;5046750;28;20029;-57
2021/07/12 09:52:48;;;;;;;3.30;1.45;;;25.30;99.30;;;;;;5030785;28;20047;-56
2021/07/12 09:55:27;;;;;;;3.58;1.42;;;25.40;99.60;;;;;;5047236;28;20048;-54
2021/07/12 09:58:15;;;;;;;2.58;1.70;;;25.60;99.10;;;;;;5031321;28;20040;-54
2021/07/12 10:01:03;;;;;;;4.47;1.73;;;25.50;98.70;;;;;;5060228;28;20474;-56
2021/07/12 10:03:32;;;;;;;3.28;1.60;;;25.50;98.40;;;;;;5052430;28;20062;-54
2021/07/12 10:06:00;;;;;;;2.25;1.73;;;25.60;98.80;;;;;;5051080;28;20028;-57
2021/07/12 10:08:26;;;;;;;5.18;1.98;;;26.00;98.30;;;;;;5063868;28;20032;-54
2021/07/12 10:10:51;;;;;;;2.45;1.95;;;26.10;97.70;;;;;;5090606;28;20024;-55
2021/07/12 10:13:17;;;;;;;2.78;1.80;;;26.40;97.60;;;;;;5088707;28;20213;-54
2021/07/12 10:15:43;;;;;;;1.30;1.20;;;26.70;97.00;;;;;;5089848;28;20511;-55
2021/07/12 10:18:09;;;;;;;2.03;1.70;;;26.70;96.50;;;;;;5088884;28;20024;-55
2021/07/12 10:20:37;;;;;;;4.10;1.63;;;26.50;96.20;;;;;;5089106;28;20449;-54
2021/07/12 10:23:05;;;;;;;2.88;1.83;;;26.40;96.20;;;;;;5090642;28;20028;-56
2021/07/12 10:25:32;;;;;;;3.00;1.48;;;25.70;96.70;;;;;;5078449;28;20044;-55
2021/07/12 10:28:08;;;;;;;1.10;0.98;;;25.70;96.90;;;;;;5069482;28;20029;-57
2021/07/12 10:30:37;;;;;;;2.22;1.33;;;26.00;96.60;;;;;;5051777;28;20122;-54
2021/07/12 10:33:06;;;;;;;1.98;1.30;;;26.30;96.50;;;;;;5051806;28;20111;-54
2021/07/12 10:35:53;;;;;;;2.92;1.40;;;26.30;96.40;;;;;;5051978;28;20036;-56
2021/07/12 10:38:25;;;;;;;2.03;1.20;;;26.20;95.20;;;;;;5051806;28;20170;-55
2021/07/12 10:40:58;;;;;;;1.05;0.95;;;26.20;95.70;;;;;;5070730;28;20120;-55
2021/07/12 10:43:42;;;;;;;3.35;1.27;;;26.20;95.10;;;;;;5052054;28;20038;-55
2021/07/12 10:46:23;;;;;;;4.07;1.45;;;26.40;95.60;;;;;;5052819;28;20028;-54
2021/07/12 10:48:49;;;;;;;5.00;2.35;;;26.30;95.00;;;;;;5053962;28;20082;-54
2021/07/12 10:51:30;;;;;;;18.67;4.22;;;25.90;95.10;;;;;;5052721;28;20025;-54
2021/07/12 10:53:59;;;;;;;12.82;4.68;;;25.70;95.80;;;;;;5054024;28;20036;-55
2021/07/12 10:56:48;;;;;;;25.67;9.10;;;25.50;95.80;;;;;;5070884;28;20146;-55
2021/07/12 10:59:31;;;;;;;25.40;9.63;;;25.30;96.80;;;;;;5069341;28;20430;-55
2021/07/12 11:01:59;;;;;;;8.60;3.28;;;25.20;97.80;;;;;;5051745;28;20024;-55
2021/07/12 11:04:52;;;;;;;9.07;4.20;;;25.20;96.50;;;;;;5051374;28;20039;-55
2021/07/12 11:07:47;;;;;;;2.92;2.20;;;25.10;97.00;;;;;;5053527;28;20082;-54
2021/07/12 11:10:27;;;;;;;7.75;3.22;;;25.20;97.20;;;;;;5055884;28;20432;-55
2021/07/12 11:13:03;;;;;;;10.90;3.75;;;25.40;96.60;;;;;;5073272;28;20473;-53
2021/07/12 11:15:37;;;;;;;2.88;1.70;;;25.50;96.20;;;;;;5074375;28;20029;-55
2021/07/12 11:18:08;;;;;;;4.47;2.42;;;25.80;96.40;;;;;;5074026;28;20064;-56
2021/07/12 11:20:43;;;;;;;5.07;2.15;;;26.00;95.80;;;;;;5073844;28;20029;-54
2021/07/12 11:23:39;;;;;;;7.93;3.20;;;26.00;95.50;;;;;;5073400;28;20025;-55
2021/07/12 11:26:20;;;;;;;4.78;1.85;;;25.90;95.90;;;;;;5072889;28;20102;-56
2021/07/12 11:28:48;;;;;;;3.50;2.42;;;25.50;95.20;;;;;;5055051;28;20556;-55
2021/07/12 11:31:51;;;;;;;5.68;2.13;;;25.20;95.80;;;;;;5054371;28;20029;-55
2021/07/12 11:34:28;;;;;;;2.33;1.63;;;25.10;95.80;;;;;;5055007;28;20070;-54
2021/07/12 11:37:02;;;;;;;7.43;1.67;;;25.00;96.50;;;;;;5055216;28;20494;-55
2021/07/12 11:39:36;;;;;;;3.03;1.38;;;25.00;96.70;;;;;;5055888;28;20047;-55
2021/07/12 11:42:14;;;;;;;1.65;1.52;;;24.90;96.50;;;;;;5054774;28;20040;-69
2021/07/12 11:44:53;;;;;;;3.00;1.77;;;24.90;96.80;;;;;;5073268;28;20029;-54
2021/07/12 11:47:37;;;;;;;4.07;1.60;;;24.80;96.70;;;;;;5055057;28;20119;-54
2021/07/12 11:50:07;;;;;;;2.03;1.83;;;25.00;96.80;;;;;;5054663;28;20056;-69
2021/07/12 11:52:33;;;;;;;3.47;1.60;;;25.10;97.30;;;;;;5073371;28;20387;-54
2021/07/12 11:55:04;;;;;;;1.63;1.52;;;25.20;96.50;;;;;;5055056;28;20201;-55
2021/07/12 11:57:30;;;;;;;2.25;1.85;;;25.30;96.40;;;;;;5054764;28;20097;-54
2021/07/12 11:59:56;;;;;;;6.85;2.15;;;25.40;96.70;;;;;;5055516;28;20048;-55
2021/07/12 12:02:22;;;;;;;2.97;1.63;;;25.60;96.30;;;;;;5054465;28;20361;-55
2021/07/12 12:04:59;;;;;;;1.60;1.50;;;25.70;96.20;;;;;;5054960;28;20028;-54
2021/07/12 12:07:31;;;;;;;3.55;1.88;;;25.70;95.70;;;;;;5054532;28;20025;-54
2021/07/12 12:09:58;;;;;;;3.53;1.65;;;25.80;95.80;;;;;;5073344;28;20093;-54
2021/07/12 12:12:29;;;;;;;3.63;1.40;;;26.20;95.20;;;;;;5053678;28;20039;-56
2021/07/12 12:15:05;;;;;;;1.50;1.40;;;26.20;94.80;;;;;;5054706;28;20033;-53
2021/07/12 12:17:32;;;;;;;1.55;1.30;;;26.50;94.50;;;;;;5072629;28;20062;-55
2021/07/12 12:20:12;;;;;;;1.35;1.20;;;26.30;93.60;;;;;;5073090;28;20029;-56
2021/07/12 12:22:52;;;;;;;2.63;1.33;;;26.20;93.00;;;;;;5072930;28;20024;-54
2021/07/12 12:25:18;;;;;;;1.10;0.97;;;26.50;93.20;;;;;;5072066;28;20297;-54
2021/07/12 12:27:43;;;;;;;1.55;1.27;;;26.50;93.20;;;;;;5091593;28;20024;-54
2021/07/12 12:30:11;;;;;;;2.75;1.08;;;26.70;92.50;;;;;;5074274;28;20044;-57
2021/07/12 12:32:36;;;;;;;3.25;1.52;;;26.80;92.20;;;;;;5091073;28;20073;-54
2021/07/12 12:35:06;;;;;;;1.40;1.02;;;27.20;91.90;;;;;;5090908;28;20405;-53
2021/07/12 12:37:37;;;;;;;1.70;1.17;;;27.30;91.80;;;;;;5091704;28;20028;-54
2021/07/12 12:40:19;;;;;;;1.27;0.93;;;27.00;91.60;;;;;;5091025;28;20406;-54
2021/07/12 12:42:45;;;;;;;;;;;26.80;92.20;;;;;;5090954;28;20028;-55
2021/07/12 12:45:11;;;;;;;3.30;1.00;;;27.00;92.00;;;;;;5089587;28;19904;-53
2021/07/12 12:47:43;;;;;;;1.95;1.30;;;27.10;92.10;;;;;;5072471;28;20040;-55
2021/07/12 12:50:16;;;;;;;1.60;1.50;;;27.40;92.50;;;;;;5071400;28;20480;-54
2021/07/12 12:52:42;;;;;;;2.03;1.30;;;27.50;91.80;;;;;;5092906;28;20032;-54
2021/07/12 12:55:12;;;;;;;2.42;1.20;;;27.40;91.60;;;;;;5090276;28;20038;-55
2021/07/12 12:57:47;;;;;;;1.45;1.05;;;27.00;92.10;;;;;;5070112;28;20055;-55